Terminal Aerodrome Forecast
Issued by NWS

Home | Current Version | Previous Version | Graphics & Text | Print | Product List | Glossary On
Versions: 1 2 3 4 5 6 7 8 9 10 11 12 13 14 15 16 17 18 19 20 21 22 23 24 25 26 27 28 29 30 31 32 33 34 35 36 37 38 39 40 41 42 43 44 45 46 47
000
FTUS43 KGRB 231728
TAFRHI
TAF
KRHI 231728Z 2318/2418 32005KT P6SM BKN004
     FM240100 31004KT 4SM BR OVC004
     FM240600 31003KT 2SM BR BKN003
      TEMPO 2410/2414 1/2SM FG BKN002
     FM241600 34003KT 3SM BR OVC004
     FM241700 02004KT P6SM BKN007=

USA.gov is the U.S. government's official web portal to all federal, state and local government web resources and services.